sensor_id;sensor_type;location;lat;lon;timestamp;P1;durP1;ratioP1;P2;durP2;ratioP2
38455;SDS011;24237;50.106;20.014;2023-02-28T00:00:39;37.30;;;14.55;;
38455;SDS011;24237;50.106;20.014;2023-02-28T00:03:05;30.00;;;12.38;;
38455;SDS011;24237;50.106;20.014;2023-02-28T00:05:31;30.02;;;12.10;;
38455;SDS011;24237;50.106;20.014;2023-02-28T00:07:57;30.27;;;12.35;;
38455;SDS011;24237;50.106;20.014;2023-02-28T00:10:26;30.05;;;12.35;;
38455;SDS011;24237;50.106;20.014;2023-02-28T00:12:54;27.63;;;10.20;;
38455;SDS011;24237;50.106;20.014;2023-02-28T00:15:23;31.85;;;11.57;;
38455;SDS011;24237;50.106;20.014;2023-02-28T00:17:49;31.25;;;12.18;;
38455;SDS011;24237;50.106;20.014;2023-02-28T00:20:15;30.20;;;11.27;;
38455;SDS011;24237;50.106;20.014;2023-02-28T00:22:42;28.45;;;10.65;;
38455;SDS011;24237;50.106;20.014;2023-02-28T00:27:36;32.30;;;11.38;;
38455;SDS011;24237;50.106;20.014;2023-02-28T00:30:04;26.27;;;10.98;;
38455;SDS011;24237;50.106;20.014;2023-02-28T00:32:30;33.13;;;11.52;;
38455;SDS011;24237;50.106;20.014;2023-02-28T00:34:56;28.63;;;11.60;;
38455;SDS011;24237;50.106;20.014;2023-02-28T00:37:21;29.17;;;10.75;;
38455;SDS011;24237;50.106;20.014;2023-02-28T00:39:47;28.88;;;11.60;;
38455;SDS011;24237;50.106;20.014;2023-02-28T00:42:13;31.35;;;12.20;;
38455;SDS011;24237;50.106;20.014;2023-02-28T00:44:38;30.00;;;12.27;;
38455;SDS011;24237;50.106;20.014;2023-02-28T00:47:04;35.00;;;12.98;;
38455;SDS011;24237;50.106;20.014;2023-02-28T00:49:30;34.35;;;12.57;;
38455;SDS011;24237;50.106;20.014;2023-02-28T00:52:16;27.75;;;11.80;;
38455;SDS011;24237;50.106;20.014;2023-02-28T00:54:41;40.78;;;15.75;;
38455;SDS011;24237;50.106;20.014;2023-02-28T00:57:07;33.00;;;13.30;;
38455;SDS011;24237;50.106;20.014;2023-02-28T00:59:33;33.60;;;13.52;;
38455;SDS011;24237;50.106;20.014;2023-02-28T01:01:58;32.58;;;13.07;;
38455;SDS011;24237;50.106;20.014;2023-02-28T01:04:24;29.83;;;12.77;;
38455;SDS011;24237;50.106;20.014;2023-02-28T01:06:49;34.65;;;12.55;;
38455;SDS011;24237;50.106;20.014;2023-02-28T01:09:15;33.58;;;13.40;;
38455;SDS011;24237;50.106;20.014;2023-02-28T01:11:41;31.95;;;13.00;;
38455;SDS011;24237;50.106;20.014;2023-02-28T01:14:10;37.42;;;14.57;;
38455;SDS011;24237;50.106;20.014;2023-02-28T01:16:40;32.83;;;13.88;;
38455;SDS011;24237;50.106;20.014;2023-02-28T01:19:06;30.30;;;12.32;;
38455;SDS011;24237;50.106;20.014;2023-02-28T01:21:31;32.83;;;12.82;;
38455;SDS011;24237;50.106;20.014;2023-02-28T01:23:57;34.05;;;13.55;;
38455;SDS011;24237;50.106;20.014;2023-02-28T01:26:24;32.50;;;13.90;;
38455;SDS011;24237;50.106;20.014;2023-02-28T01:28:50;30.65;;;13.80;;
38455;SDS011;24237;50.106;20.014;2023-02-28T01:33:44;35.78;;;13.88;;
38455;SDS011;24237;50.106;20.014;2023-02-28T01:36:11;37.20;;;13.57;;
38455;SDS011;24237;50.106;20.014;2023-02-28T01:38:42;30.23;;;13.27;;
38455;SDS011;24237;50.106;20.014;2023-02-28T01:41:10;35.88;;;14.23;;
38455;SDS011;24237;50.106;20.014;2023-02-28T01:46:07;35.45;;;14.20;;
38455;SDS011;24237;50.106;20.014;2023-02-28T01:48:34;36.17;;;15.18;;
38455;SDS011;24237;50.106;20.014;2023-02-28T01:51:05;41.92;;;16.55;;
38455;SDS011;24237;50.106;20.014;2023-02-28T01:53:37;44.83;;;16.35;;
38455;SDS011;24237;50.106;20.014;2023-02-28T01:56:08;39.20;;;15.82;;
38455;SDS011;24237;50.106;20.014;2023-02-28T01:58:36;42.55;;;16.50;;
38455;SDS011;24237;50.106;20.014;2023-02-28T02:01:03;41.30;;;16.45;;
38455;SDS011;24237;50.106;20.014;2023-02-28T02:03:29;45.50;;;17.85;;
38455;SDS011;24237;50.106;20.014;2023-02-28T02:05:56;46.95;;;19.13;;
38455;SDS011;24237;50.106;20.014;2023-02-28T02:08:23;43.97;;;18.85;;
38455;SDS011;24237;50.106;20.014;2023-02-28T02:10:51;44.80;;;19.20;;
38455;SDS011;24237;50.106;20.014;2023-02-28T02:18:54;42.17;;;18.75;;
38455;SDS011;24237;50.106;20.014;2023-02-28T02:21:44;44.63;;;17.40;;
38455;SDS011;24237;50.106;20.014;2023-02-28T02:32:49;43.70;;;15.63;;
38455;SDS011;24237;50.106;20.014;2023-02-28T02:35:30;34.40;;;14.85;;
38455;SDS011;24237;50.106;20.014;2023-02-28T02:43:47;46.42;;;17.45;;
38455;SDS011;24237;50.106;20.014;2023-02-28T02:46:19;38.45;;;16.02;;
38455;SDS011;24237;50.106;20.014;2023-02-28T02:48:46;37.08;;;14.43;;
38455;SDS011;24237;50.106;20.014;2023-02-28T02:51:15;34.88;;;15.38;;
38455;SDS011;24237;50.106;20.014;2023-02-28T02:53:47;31.73;;;14.75;;
38455;SDS011;24237;50.106;20.014;2023-02-28T02:56:27;38.70;;;14.88;;
38455;SDS011;24237;50.106;20.014;2023-02-28T02:58:57;35.25;;;14.38;;
38455;SDS011;24237;50.106;20.014;2023-02-28T03:01:26;37.60;;;15.35;;
38455;SDS011;24237;50.106;20.014;2023-02-28T03:03:56;41.47;;;16.50;;
38455;SDS011;24237;50.106;20.014;2023-02-28T03:06:24;37.05;;;15.30;;
38455;SDS011;24237;50.106;20.014;2023-02-28T03:08:50;40.85;;;16.48;;
38455;SDS011;24237;50.106;20.014;2023-02-28T03:11:16;40.53;;;16.05;;
38455;SDS011;24237;50.106;20.014;2023-02-28T03:14:09;37.85;;;16.27;;
38455;SDS011;24237;50.106;20.014;2023-02-28T03:21:53;37.08;;;16.90;;
38455;SDS011;24237;50.106;20.014;2023-02-28T03:27:19;37.78;;;16.15;;
38455;SDS011;24237;50.106;20.014;2023-02-28T03:30:13;39.63;;;16.90;;
38455;SDS011;24237;50.106;20.014;2023-02-28T03:33:01;52.60;;;18.83;;
38455;SDS011;24237;50.106;20.014;2023-02-28T03:35:36;38.40;;;15.07;;
38455;SDS011;24237;50.106;20.014;2023-02-28T03:38:13;42.88;;;17.80;;
38455;SDS011;24237;50.106;20.014;2023-02-28T03:40:46;38.58;;;16.73;;
38455;SDS011;24237;50.106;20.014;2023-02-28T03:43:22;41.35;;;16.15;;
38455;SDS011;24237;50.106;20.014;2023-02-28T03:45:52;46.88;;;18.25;;
38455;SDS011;24237;50.106;20.014;2023-02-28T03:48:25;44.60;;;18.17;;
38455;SDS011;24237;50.106;20.014;2023-02-28T03:51:01;42.30;;;18.90;;
38455;SDS011;24237;50.106;20.014;2023-02-28T03:53:37;34.42;;;15.95;;
38455;SDS011;24237;50.106;20.014;2023-02-28T03:56:11;40.22;;;17.15;;
38455;SDS011;24237;50.106;20.014;2023-02-28T03:58:49;46.67;;;18.00;;
38455;SDS011;24237;50.106;20.014;2023-02-28T04:01:22;41.85;;;16.58;;
38455;SDS011;24237;50.106;20.014;2023-02-28T04:03:53;39.08;;;16.90;;
38455;SDS011;24237;50.106;20.014;2023-02-28T04:06:19;42.50;;;16.95;;
38455;SDS011;24237;50.106;20.014;2023-02-28T04:08:47;35.30;;;15.93;;
38455;SDS011;24237;50.106;20.014;2023-02-28T04:13:44;42.92;;;17.92;;
38455;SDS011;24237;50.106;20.014;2023-02-28T04:16:10;36.60;;;17.52;;
38455;SDS011;24237;50.106;20.014;2023-02-28T04:18:40;37.93;;;17.77;;
38455;SDS011;24237;50.106;20.014;2023-02-28T04:21:08;38.72;;;16.60;;
38455;SDS011;24237;50.106;20.014;2023-02-28T04:23:34;36.47;;;17.10;;
38455;SDS011;24237;50.106;20.014;2023-02-28T04:26:00;42.22;;;17.17;;
38455;SDS011;24237;50.106;20.014;2023-02-28T04:28:26;36.95;;;17.55;;
38455;SDS011;24237;50.106;20.014;2023-02-28T04:30:56;42.13;;;16.90;;
38455;SDS011;24237;50.106;20.014;2023-02-28T04:33:27;40.65;;;16.25;;
38455;SDS011;24237;50.106;20.014;2023-02-28T04:36:02;38.13;;;16.88;;
38455;SDS011;24237;50.106;20.014;2023-02-28T04:38:34;38.28;;;17.15;;
38455;SDS011;24237;50.106;20.014;2023-02-28T04:41:01;35.92;;;16.05;;
38455;SDS011;24237;50.106;20.014;2023-02-28T04:43:28;32.55;;;16.40;;
38455;SDS011;24237;50.106;20.014;2023-02-28T04:45:58;48.17;;;19.60;;
38455;SDS011;24237;50.106;20.014;2023-02-28T04:48:27;37.55;;;16.52;;
38455;SDS011;24237;50.106;20.014;2023-02-28T04:50:54;42.20;;;16.65;;
38455;SDS011;24237;50.106;20.014;2023-02-28T04:53:20;42.25;;;15.85;;
38455;SDS011;24237;50.106;20.014;2023-02-28T04:55:46;38.33;;;16.58;;
38455;SDS011;24237;50.106;20.014;2023-02-28T04:58:12;41.13;;;16.52;;
38455;SDS011;24237;50.106;20.014;2023-02-28T05:00:39;34.85;;;16.80;;
38455;SDS011;24237;50.106;20.014;2023-02-28T05:03:04;36.00;;;16.10;;
38455;SDS011;24237;50.106;20.014;2023-02-28T05:05:30;33.08;;;16.08;;
38455;SDS011;24237;50.106;20.014;2023-02-28T05:07:56;40.67;;;16.75;;
38455;SDS011;24237;50.106;20.014;2023-02-28T05:10:22;43.28;;;17.45;;
38455;SDS011;24237;50.106;20.014;2023-02-28T05:12:48;38.92;;;18.15;;
38455;SDS011;24237;50.106;20.014;2023-02-28T05:15:14;44.17;;;17.98;;
38455;SDS011;24237;50.106;20.014;2023-02-28T05:17:40;37.00;;;17.13;;
38455;SDS011;24237;50.106;20.014;2023-02-28T05:20:06;40.08;;;17.42;;
38455;SDS011;24237;50.106;20.014;2023-02-28T05:22:35;36.83;;;17.42;;
38455;SDS011;24237;50.106;20.014;2023-02-28T05:25:02;41.90;;;17.30;;
38455;SDS011;24237;50.106;20.014;2023-02-28T05:29:55;37.63;;;16.92;;
38455;SDS011;24237;50.106;20.014;2023-02-28T05:32:21;42.30;;;16.45;;
38455;SDS011;24237;50.106;20.014;2023-02-28T05:34:47;37.95;;;16.17;;
38455;SDS011;24237;50.106;20.014;2023-02-28T05:37:13;40.20;;;16.58;;
38455;SDS011;24237;50.106;20.014;2023-02-28T05:42:06;41.35;;;17.15;;
38455;SDS011;24237;50.106;20.014;2023-02-28T05:44:32;39.53;;;16.83;;
38455;SDS011;24237;50.106;20.014;2023-02-28T05:47:17;39.70;;;16.98;;
38455;SDS011;24237;50.106;20.014;2023-02-28T05:49:43;35.75;;;17.15;;
38455;SDS011;24237;50.106;20.014;2023-02-28T05:52:09;34.53;;;16.45;;
38455;SDS011;24237;50.106;20.014;2023-02-28T05:54:35;39.15;;;16.05;;
38455;SDS011;24237;50.106;20.014;2023-02-28T05:57:01;36.55;;;16.23;;
38455;SDS011;24237;50.106;20.014;2023-02-28T05:59:27;38.13;;;16.95;;
38455;SDS011;24237;50.106;20.014;2023-02-28T06:01:52;37.22;;;16.35;;
38455;SDS011;24237;50.106;20.014;2023-02-28T06:04:19;37.13;;;17.65;;
38455;SDS011;24237;50.106;20.014;2023-02-28T06:06:46;39.85;;;17.88;;
38455;SDS011;24237;50.106;20.014;2023-02-28T06:09:12;44.88;;;18.48;;
38455;SDS011;24237;50.106;20.014;2023-02-28T06:11:38;42.55;;;17.67;;
38455;SDS011;24237;50.106;20.014;2023-02-28T06:14:05;38.22;;;16.55;;
38455;SDS011;24237;50.106;20.014;2023-02-28T06:16:32;45.97;;;17.65;;
38455;SDS011;24237;50.106;20.014;2023-02-28T06:19:00;44.67;;;17.77;;
38455;SDS011;24237;50.106;20.014;2023-02-28T06:21:27;42.83;;;18.92;;
38455;SDS011;24237;50.106;20.014;2023-02-28T06:23:53;48.72;;;20.15;;
38455;SDS011;24237;50.106;20.014;2023-02-28T06:26:18;39.45;;;19.05;;
38455;SDS011;24237;50.106;20.014;2023-02-28T06:28:44;44.28;;;17.92;;
38455;SDS011;24237;50.106;20.014;2023-02-28T06:31:11;39.88;;;18.42;;
38455;SDS011;24237;50.106;20.014;2023-02-28T06:33:39;47.65;;;19.10;;
38455;SDS011;24237;50.106;20.014;2023-02-28T06:36:05;51.33;;;19.55;;
38455;SDS011;24237;50.106;20.014;2023-02-28T06:38:32;51.05;;;19.13;;
38455;SDS011;24237;50.106;20.014;2023-02-28T06:40:58;58.65;;;22.88;;
38455;SDS011;24237;50.106;20.014;2023-02-28T06:43:26;64.20;;;24.20;;
38455;SDS011;24237;50.106;20.014;2023-02-28T06:45:58;61.60;;;24.67;;
38455;SDS011;24237;50.106;20.014;2023-02-28T06:48:25;53.45;;;23.75;;
38455;SDS011;24237;50.106;20.014;2023-02-28T06:50:51;53.67;;;22.73;;
38455;SDS011;24237;50.106;20.014;2023-02-28T06:53:17;50.85;;;20.45;;
38455;SDS011;24237;50.106;20.014;2023-02-28T06:55:43;47.42;;;20.35;;
38455;SDS011;24237;50.106;20.014;2023-02-28T06:58:08;52.35;;;22.30;;
38455;SDS011;24237;50.106;20.014;2023-02-28T07:00:41;49.85;;;20.50;;
38455;SDS011;24237;50.106;20.014;2023-02-28T07:03:07;53.70;;;21.03;;
38455;SDS011;24237;50.106;20.014;2023-02-28T07:05:36;42.72;;;19.98;;
38455;SDS011;24237;50.106;20.014;2023-02-28T07:08:03;42.97;;;18.73;;
38455;SDS011;24237;50.106;20.014;2023-02-28T07:10:29;44.83;;;20.60;;
38455;SDS011;24237;50.106;20.014;2023-02-28T07:12:55;47.97;;;20.67;;
38455;SDS011;24237;50.106;20.014;2023-02-28T07:15:21;48.65;;;20.83;;
38455;SDS011;24237;50.106;20.014;2023-02-28T07:17:46;45.08;;;17.88;;
38455;SDS011;24237;50.106;20.014;2023-02-28T07:20:12;47.33;;;20.15;;
38455;SDS011;24237;50.106;20.014;2023-02-28T07:22:38;55.20;;;19.95;;
38455;SDS011;24237;50.106;20.014;2023-02-28T07:25:04;61.40;;;19.33;;
38455;SDS011;24237;50.106;20.014;2023-02-28T07:27:30;51.95;;;20.10;;
38455;SDS011;24237;50.106;20.014;2023-02-28T07:29:56;40.30;;;17.45;;
38455;SDS011;24237;50.106;20.014;2023-02-28T07:32:21;52.40;;;16.90;;
38455;SDS011;24237;50.106;20.014;2023-02-28T07:34:47;38.65;;;15.88;;
38455;SDS011;24237;50.106;20.014;2023-02-28T07:37:13;34.08;;;15.45;;
38455;SDS011;24237;50.106;20.014;2023-02-28T07:39:39;36.83;;;15.43;;
38455;SDS011;24237;50.106;20.014;2023-02-28T07:42:07;41.03;;;15.77;;
38455;SDS011;24237;50.106;20.014;2023-02-28T07:44:36;33.15;;;14.32;;
38455;SDS011;24237;50.106;20.014;2023-02-28T07:47:05;32.55;;;14.57;;
38455;SDS011;24237;50.106;20.014;2023-02-28T07:49:32;47.78;;;18.30;;
38455;SDS011;24237;50.106;20.014;2023-02-28T07:51:59;38.08;;;16.27;;
38455;SDS011;24237;50.106;20.014;2023-02-28T07:54:24;54.60;;;21.92;;
38455;SDS011;24237;50.106;20.014;2023-02-28T07:56:50;26.45;;;12.93;;
38455;SDS011;24237;50.106;20.014;2023-02-28T07:59:15;30.52;;;13.02;;
38455;SDS011;24237;50.106;20.014;2023-02-28T08:01:41;27.25;;;13.38;;
38455;SDS011;24237;50.106;20.014;2023-02-28T08:04:09;27.98;;;13.43;;
38455;SDS011;24237;50.106;20.014;2023-02-28T08:06:35;27.08;;;11.80;;
38455;SDS011;24237;50.106;20.014;2023-02-28T08:09:00;24.45;;;11.38;;
38455;SDS011;24237;50.106;20.014;2023-02-28T08:11:26;31.80;;;12.50;;
38455;SDS011;24237;50.106;20.014;2023-02-28T08:13:52;29.30;;;10.95;;
38455;SDS011;24237;50.106;20.014;2023-02-28T08:16:17;24.80;;;10.20;;
38455;SDS011;24237;50.106;20.014;2023-02-28T08:18:47;24.30;;;9.65;;
38455;SDS011;24237;50.106;20.014;2023-02-28T08:21:14;26.17;;;11.63;;
38455;SDS011;24237;50.106;20.014;2023-02-28T08:23:40;23.08;;;9.70;;
38455;SDS011;24237;50.106;20.014;2023-02-28T08:26:05;18.50;;;9.13;;
38455;SDS011;24237;50.106;20.014;2023-02-28T08:28:31;22.77;;;9.10;;
38455;SDS011;24237;50.106;20.014;2023-02-28T08:30:57;18.92;;;8.85;;
38455;SDS011;24237;50.106;20.014;2023-02-28T08:33:23;20.38;;;8.65;;
38455;SDS011;24237;50.106;20.014;2023-02-28T08:35:52;16.70;;;8.32;;
38455;SDS011;24237;50.106;20.014;2023-02-28T08:38:21;18.70;;;8.65;;
38455;SDS011;24237;50.106;20.014;2023-02-28T08:40:48;14.93;;;7.00;;
38455;SDS011;24237;50.106;20.014;2023-02-28T08:43:13;17.83;;;7.80;;
38455;SDS011;24237;50.106;20.014;2023-02-28T08:45:39;15.68;;;6.90;;
38455;SDS011;24237;50.106;20.014;2023-02-28T08:48:05;16.20;;;7.47;;
38455;SDS011;24237;50.106;20.014;2023-02-28T08:50:31;16.83;;;7.47;;
38455;SDS011;24237;50.106;20.014;2023-02-28T08:52:56;21.75;;;7.82;;
38455;SDS011;24237;50.106;20.014;2023-02-28T08:55:23;13.95;;;6.35;;
38455;SDS011;24237;50.106;20.014;2023-02-28T08:57:48;11.75;;;5.60;;
38455;SDS011;24237;50.106;20.014;2023-02-28T09:00:14;13.13;;;6.47;;
38455;SDS011;24237;50.106;20.014;2023-02-28T09:02:40;12.05;;;5.88;;
38455;SDS011;24237;50.106;20.014;2023-02-28T09:05:07;16.45;;;6.53;;
38455;SDS011;24237;50.106;20.014;2023-02-28T09:07:33;13.38;;;6.20;;
38455;SDS011;24237;50.106;20.014;2023-02-28T09:09:59;13.10;;;6.20;;
38455;SDS011;24237;50.106;20.014;2023-02-28T09:12:25;13.82;;;6.45;;
38455;SDS011;24237;50.106;20.014;2023-02-28T09:14:52;12.88;;;6.57;;
38455;SDS011;24237;50.106;20.014;2023-02-28T09:17:18;13.35;;;6.22;;
38455;SDS011;24237;50.106;20.014;2023-02-28T09:19:44;15.18;;;6.75;;
38455;SDS011;24237;50.106;20.014;2023-02-28T09:24:37;12.43;;;5.65;;
38455;SDS011;24237;50.106;20.014;2023-02-28T09:27:03;15.52;;;6.03;;
38455;SDS011;24237;50.106;20.014;2023-02-28T09:29:30;12.80;;;6.07;;
38455;SDS011;24237;50.106;20.014;2023-02-28T09:31:59;11.70;;;6.07;;
38455;SDS011;24237;50.106;20.014;2023-02-28T09:34:26;13.68;;;6.18;;
38455;SDS011;24237;50.106;20.014;2023-02-28T09:36:52;12.32;;;6.63;;
38455;SDS011;24237;50.106;20.014;2023-02-28T09:39:19;15.80;;;6.70;;
38455;SDS011;24237;50.106;20.014;2023-02-28T09:41:47;13.30;;;6.68;;
38455;SDS011;24237;50.106;20.014;2023-02-28T09:44:17;17.75;;;7.30;;
38455;SDS011;24237;50.106;20.014;2023-02-28T09:46:54;16.58;;;7.50;;
38455;SDS011;24237;50.106;20.014;2023-02-28T09:49:25;20.80;;;8.20;;
38455;SDS011;24237;50.106;20.014;2023-02-28T09:52:04;16.17;;;7.82;;
38455;SDS011;24237;50.106;20.014;2023-02-28T09:54:34;17.77;;;8.10;;
38455;SDS011;24237;50.106;20.014;2023-02-28T10:00:15;25.27;;;9.02;;
38455;SDS011;24237;50.106;20.014;2023-02-28T10:03:01;20.52;;;8.27;;
38455;SDS011;24237;50.106;20.014;2023-02-28T10:05:52;13.18;;;7.65;;
38455;SDS011;24237;50.106;20.014;2023-02-28T10:08:39;19.55;;;9.43;;
38455;SDS011;24237;50.106;20.014;2023-02-28T10:11:12;16.70;;;8.13;;
38455;SDS011;24237;50.106;20.014;2023-02-28T10:13:51;15.55;;;8.32;;
38455;SDS011;24237;50.106;20.014;2023-02-28T10:18:58;17.75;;;8.88;;
38455;SDS011;24237;50.106;20.014;2023-02-28T10:21:36;20.85;;;9.38;;
38455;SDS011;24237;50.106;20.014;2023-02-28T10:29:44;14.18;;;6.97;;
38455;SDS011;24237;50.106;20.014;2023-02-28T10:32:13;15.48;;;6.35;;
38455;SDS011;24237;50.106;20.014;2023-02-28T10:34:41;13.82;;;7.03;;
38455;SDS011;24237;50.106;20.014;2023-02-28T10:37:07;17.90;;;8.35;;
38455;SDS011;24237;50.106;20.014;2023-02-28T10:45:13;19.50;;;7.20;;
38455;SDS011;24237;50.106;20.014;2023-02-28T10:47:39;18.05;;;6.85;;
38455;SDS011;24237;50.106;20.014;2023-02-28T10:50:39;20.85;;;7.53;;
38455;SDS011;24237;50.106;20.014;2023-02-28T10:56:00;32.55;;;7.07;;
38455;SDS011;24237;50.106;20.014;2023-02-28T11:04:03;15.75;;;7.60;;
38455;SDS011;24237;50.106;20.014;2023-02-28T11:06:47;14.02;;;7.38;;
38455;SDS011;24237;50.106;20.014;2023-02-28T11:11:50;18.23;;;7.10;;
38455;SDS011;24237;50.106;20.014;2023-02-28T11:14:22;19.00;;;7.75;;
38455;SDS011;24237;50.106;20.014;2023-02-28T11:16:52;14.10;;;7.20;;
38455;SDS011;24237;50.106;20.014;2023-02-28T11:19:20;14.73;;;8.52;;
38455;SDS011;24237;50.106;20.014;2023-02-28T11:21:55;18.35;;;7.90;;
38455;SDS011;24237;50.106;20.014;2023-02-28T11:34:38;14.90;;;8.30;;
38455;SDS011;24237;50.106;20.014;2023-02-28T11:37:09;15.65;;;7.90;;
38455;SDS011;24237;50.106;20.014;2023-02-28T11:39:38;14.50;;;7.78;;
38455;SDS011;24237;50.106;20.014;2023-02-28T11:42:10;14.80;;;7.63;;
38455;SDS011;24237;50.106;20.014;2023-02-28T11:53:50;17.88;;;7.15;;
38455;SDS011;24237;50.106;20.014;2023-02-28T12:02:42;13.05;;;7.22;;
38455;SDS011;24237;50.106;20.014;2023-02-28T12:19:38;15.27;;;7.00;;
38455;SDS011;24237;50.106;20.014;2023-02-28T12:27:57;10.82;;;6.60;;
38455;SDS011;24237;50.106;20.014;2023-02-28T12:30:25;16.65;;;7.07;;
38455;SDS011;24237;50.106;20.014;2023-02-28T12:33:01;16.67;;;7.80;;
38455;SDS011;24237;50.106;20.014;2023-02-28T12:35:34;12.65;;;6.32;;
38455;SDS011;24237;50.106;20.014;2023-02-28T12:38:05;13.05;;;7.40;;
38455;SDS011;24237;50.106;20.014;2023-02-28T12:43:11;12.13;;;6.72;;
38455;SDS011;24237;50.106;20.014;2023-02-28T12:45:44;10.88;;;6.63;;
38455;SDS011;24237;50.106;20.014;2023-02-28T12:48:21;11.27;;;6.35;;
38455;SDS011;24237;50.106;20.014;2023-02-28T12:50:54;14.75;;;6.38;;
38455;SDS011;24237;50.106;20.014;2023-02-28T12:56:16;13.43;;;7.60;;
38455;SDS011;24237;50.106;20.014;2023-02-28T12:59:13;20.60;;;7.80;;
38455;SDS011;24237;50.106;20.014;2023-02-28T13:10:06;14.82;;;7.45;;
38455;SDS011;24237;50.106;20.014;2023-02-28T13:12:33;16.38;;;9.05;;
38455;SDS011;24237;50.106;20.014;2023-02-28T13:17:48;12.45;;;6.55;;
38455;SDS011;24237;50.106;20.014;2023-02-28T13:20:29;14.70;;;7.70;;
38455;SDS011;24237;50.106;20.014;2023-02-28T13:23:01;14.90;;;7.38;;
38455;SDS011;24237;50.106;20.014;2023-02-28T13:27:58;14.15;;;7.47;;
38455;SDS011;24237;50.106;20.014;2023-02-28T13:36:07;14.15;;;8.10;;
38455;SDS011;24237;50.106;20.014;2023-02-28T13:38:34;15.13;;;7.13;;
38455;SDS011;24237;50.106;20.014;2023-02-28T13:44:04;11.48;;;6.75;;
38455;SDS011;24237;50.106;20.014;2023-02-28T13:46:31;10.35;;;6.80;;
38455;SDS011;24237;50.106;20.014;2023-02-28T13:57:42;17.00;;;7.68;;
38455;SDS011;24237;50.106;20.014;2023-02-28T14:08:35;15.13;;;7.97;;
38455;SDS011;24237;50.106;20.014;2023-02-28T14:11:03;14.82;;;8.25;;
38455;SDS011;24237;50.106;20.014;2023-02-28T14:13:39;25.48;;;8.60;;
38455;SDS011;24237;50.106;20.014;2023-02-28T14:16:13;15.27;;;8.35;;
38455;SDS011;24237;50.106;20.014;2023-02-28T14:18:41;14.90;;;7.38;;
38455;SDS011;24237;50.106;20.014;2023-02-28T14:21:20;17.95;;;8.77;;
38455;SDS011;24237;50.106;20.014;2023-02-28T14:24:19;19.08;;;7.63;;
38455;SDS011;24237;50.106;20.014;2023-02-28T14:35:13;14.43;;;6.70;;
38455;SDS011;24237;50.106;20.014;2023-02-28T14:37:45;15.27;;;7.53;;
38455;SDS011;24237;50.106;20.014;2023-02-28T14:40:17;16.13;;;8.25;;
38455;SDS011;24237;50.106;20.014;2023-02-28T14:42:59;13.77;;;7.88;;
38455;SDS011;24237;50.106;20.014;2023-02-28T14:45:31;15.85;;;7.68;;
38455;SDS011;24237;50.106;20.014;2023-02-28T14:47:59;12.63;;;7.72;;
38455;SDS011;24237;50.106;20.014;2023-02-28T14:50:27;15.25;;;7.57;;
38455;SDS011;24237;50.106;20.014;2023-02-28T14:52:59;16.73;;;8.82;;
38455;SDS011;24237;50.106;20.014;2023-02-28T14:55:28;15.95;;;8.25;;
38455;SDS011;24237;50.106;20.014;2023-02-28T14:57:57;16.33;;;8.35;;
38455;SDS011;24237;50.106;20.014;2023-02-28T15:00:29;17.90;;;8.30;;
38455;SDS011;24237;50.106;20.014;2023-02-28T15:02:57;16.90;;;8.93;;
38455;SDS011;24237;50.106;20.014;2023-02-28T15:05:30;20.83;;;10.15;;
38455;SDS011;24237;50.106;20.014;2023-02-28T15:08:11;17.90;;;9.15;;
38455;SDS011;24237;50.106;20.014;2023-02-28T15:10:42;18.17;;;8.88;;
38455;SDS011;24237;50.106;20.014;2023-02-28T15:13:20;13.18;;;8.60;;
38455;SDS011;24237;50.106;20.014;2023-02-28T15:15:49;18.05;;;9.63;;
38455;SDS011;24237;50.106;20.014;2023-02-28T15:18:26;14.90;;;8.52;;
38455;SDS011;24237;50.106;20.014;2023-02-28T15:21:02;16.95;;;8.95;;
38455;SDS011;24237;50.106;20.014;2023-02-28T15:23:31;20.90;;;9.27;;
38455;SDS011;24237;50.106;20.014;2023-02-28T15:25:57;24.67;;;10.27;;
38455;SDS011;24237;50.106;20.014;2023-02-28T15:28:24;21.92;;;9.82;;
38455;SDS011;24237;50.106;20.014;2023-02-28T15:30:51;20.98;;;10.70;;
38455;SDS011;24237;50.106;20.014;2023-02-28T15:33:28;20.75;;;8.38;;
38455;SDS011;24237;50.106;20.014;2023-02-28T15:36:13;19.50;;;9.63;;
38455;SDS011;24237;50.106;20.014;2023-02-28T15:38:42;19.00;;;8.48;;
38455;SDS011;24237;50.106;20.014;2023-02-28T15:41:23;18.95;;;9.15;;
38455;SDS011;24237;50.106;20.014;2023-02-28T15:46:43;20.38;;;9.48;;
38455;SDS011;24237;50.106;20.014;2023-02-28T15:49:20;16.63;;;9.18;;
38455;SDS011;24237;50.106;20.014;2023-02-28T15:51:48;18.05;;;9.50;;
38455;SDS011;24237;50.106;20.014;2023-02-28T15:54:21;20.55;;;8.75;;
38455;SDS011;24237;50.106;20.014;2023-02-28T15:56:55;32.83;;;8.85;;
38455;SDS011;24237;50.106;20.014;2023-02-28T15:59:31;25.38;;;9.55;;
38455;SDS011;24237;50.106;20.014;2023-02-28T16:04:53;28.05;;;9.18;;
38455;SDS011;24237;50.106;20.014;2023-02-28T16:07:42;19.30;;;9.18;;
38455;SDS011;24237;50.106;20.014;2023-02-28T16:10:09;19.75;;;9.13;;
38455;SDS011;24237;50.106;20.014;2023-02-28T16:12:38;23.70;;;9.43;;
38455;SDS011;24237;50.106;20.014;2023-02-28T16:15:08;22.48;;;10.20;;
38455;SDS011;24237;50.106;20.014;2023-02-28T16:17:43;24.20;;;9.40;;
38455;SDS011;24237;50.106;20.014;2023-02-28T16:20:21;23.37;;;9.53;;
38455;SDS011;24237;50.106;20.014;2023-02-28T16:22:49;22.98;;;10.70;;
38455;SDS011;24237;50.106;20.014;2023-02-28T16:25:16;25.50;;;10.23;;
38455;SDS011;24237;50.106;20.014;2023-02-28T16:27:45;27.88;;;11.52;;
38455;SDS011;24237;50.106;20.014;2023-02-28T16:30:22;27.33;;;12.35;;
38455;SDS011;24237;50.106;20.014;2023-02-28T16:32:51;30.25;;;12.07;;
38455;SDS011;24237;50.106;20.014;2023-02-28T16:35:19;29.85;;;12.35;;
38455;SDS011;24237;50.106;20.014;2023-02-28T16:37:45;24.88;;;12.43;;
38455;SDS011;24237;50.106;20.014;2023-02-28T16:40:18;24.75;;;11.13;;
38455;SDS011;24237;50.106;20.014;2023-02-28T16:42:50;26.10;;;12.18;;
38455;SDS011;24237;50.106;20.014;2023-02-28T16:45:22;26.00;;;12.38;;
38455;SDS011;24237;50.106;20.014;2023-02-28T16:47:50;35.65;;;13.85;;
38455;SDS011;24237;50.106;20.014;2023-02-28T16:52:47;29.38;;;14.27;;
38455;SDS011;24237;50.106;20.014;2023-02-28T16:55:14;34.63;;;14.40;;
38455;SDS011;24237;50.106;20.014;2023-02-28T16:57:40;35.78;;;14.32;;
38455;SDS011;24237;50.106;20.014;2023-02-28T17:00:07;35.33;;;14.18;;
38455;SDS011;24237;50.106;20.014;2023-02-28T17:02:37;36.53;;;17.20;;
38455;SDS011;24237;50.106;20.014;2023-02-28T17:05:03;40.92;;;16.95;;
38455;SDS011;24237;50.106;20.014;2023-02-28T17:07:29;38.17;;;17.75;;
38455;SDS011;24237;50.106;20.014;2023-02-28T17:09:54;44.53;;;17.88;;
38455;SDS011;24237;50.106;20.014;2023-02-28T17:12:20;39.17;;;17.80;;
38455;SDS011;24237;50.106;20.014;2023-02-28T17:14:46;36.28;;;18.52;;
38455;SDS011;24237;50.106;20.014;2023-02-28T17:17:15;45.45;;;18.70;;
38455;SDS011;24237;50.106;20.014;2023-02-28T17:19:46;50.78;;;19.83;;
38455;SDS011;24237;50.106;20.014;2023-02-28T17:22:12;48.10;;;19.88;;
38455;SDS011;24237;50.106;20.014;2023-02-28T17:24:38;48.92;;;21.00;;
38455;SDS011;24237;50.106;20.014;2023-02-28T17:27:04;44.83;;;20.85;;